sensor_id;sensor_type;location;lat;lon;timestamp;P1;durP1;ratioP1;P2;durP2;ratioP2
59181;SDS011;45293;44.606;21.176;2023-01-16T00:00:55;42.85;;;19.30;;
59181;SDS011;45293;44.606;21.176;2023-01-16T00:03:21;48.58;;;20.50;;
59181;SDS011;45293;44.606;21.176;2023-01-16T00:05:47;46.90;;;20.40;;
59181;SDS011;45293;44.606;21.176;2023-01-16T00:08:13;40.47;;;18.92;;
59181;SDS011;45293;44.606;21.176;2023-01-16T00:10:40;40.95;;;17.60;;
59181;SDS011;45293;44.606;21.176;2023-01-16T00:13:06;35.45;;;18.17;;
59181;SDS011;45293;44.606;21.176;2023-01-16T00:15:32;37.05;;;17.25;;
59181;SDS011;45293;44.606;21.176;2023-01-16T00:17:58;37.25;;;17.58;;
59181;SDS011;45293;44.606;21.176;2023-01-16T00:20:24;39.65;;;19.33;;
59181;SDS011;45293;44.606;21.176;2023-01-16T00:22:50;54.88;;;22.60;;
59181;SDS011;45293;44.606;21.176;2023-01-16T00:25:16;44.20;;;20.25;;
59181;SDS011;45293;44.606;21.176;2023-01-16T00:27:43;53.63;;;22.10;;
59181;SDS011;45293;44.606;21.176;2023-01-16T00:30:09;64.13;;;25.73;;
59181;SDS011;45293;44.606;21.176;2023-01-16T00:32:35;77.28;;;31.38;;
59181;SDS011;45293;44.606;21.176;2023-01-16T00:35:01;68.72;;;28.90;;
59181;SDS011;45293;44.606;21.176;2023-01-16T00:37:27;55.78;;;23.90;;
59181;SDS011;45293;44.606;21.176;2023-01-16T00:39:53;75.03;;;30.10;;
59181;SDS011;45293;44.606;21.176;2023-01-16T00:42:19;73.07;;;29.77;;
59181;SDS011;45293;44.606;21.176;2023-01-16T00:44:45;53.78;;;24.08;;
59181;SDS011;45293;44.606;21.176;2023-01-16T00:47:11;51.28;;;24.40;;
59181;SDS011;45293;44.606;21.176;2023-01-16T00:49:37;53.22;;;24.23;;
59181;SDS011;45293;44.606;21.176;2023-01-16T00:52:04;56.78;;;24.33;;
59181;SDS011;45293;44.606;21.176;2023-01-16T00:54:30;57.05;;;24.20;;
59181;SDS011;45293;44.606;21.176;2023-01-16T00:56:56;57.72;;;23.83;;
59181;SDS011;45293;44.606;21.176;2023-01-16T00:59:22;54.75;;;21.55;;
59181;SDS011;45293;44.606;21.176;2023-01-16T01:01:48;44.55;;;20.27;;
59181;SDS011;45293;44.606;21.176;2023-01-16T01:04:14;47.42;;;22.45;;
59181;SDS011;45293;44.606;21.176;2023-01-16T01:06:41;48.88;;;20.27;;
59181;SDS011;45293;44.606;21.176;2023-01-16T01:09:07;39.92;;;18.98;;
59181;SDS011;45293;44.606;21.176;2023-01-16T01:11:33;40.90;;;19.55;;
59181;SDS011;45293;44.606;21.176;2023-01-16T01:13:59;42.65;;;19.48;;
59181;SDS011;45293;44.606;21.176;2023-01-16T01:16:25;42.58;;;18.52;;
59181;SDS011;45293;44.606;21.176;2023-01-16T01:18:51;41.38;;;18.33;;
59181;SDS011;45293;44.606;21.176;2023-01-16T01:21:17;52.38;;;24.35;;
59181;SDS011;45293;44.606;21.176;2023-01-16T01:23:43;47.50;;;20.13;;
59181;SDS011;45293;44.606;21.176;2023-01-16T01:26:14;38.03;;;18.23;;
59181;SDS011;45293;44.606;21.176;2023-01-16T01:28:41;44.17;;;20.48;;
59181;SDS011;45293;44.606;21.176;2023-01-16T01:31:08;48.13;;;21.35;;
59181;SDS011;45293;44.606;21.176;2023-01-16T01:33:35;39.30;;;17.55;;
59181;SDS011;45293;44.606;21.176;2023-01-16T01:36:01;40.92;;;17.75;;
59181;SDS011;45293;44.606;21.176;2023-01-16T01:38:27;40.97;;;19.75;;
59181;SDS011;45293;44.606;21.176;2023-01-16T01:40:53;43.67;;;18.77;;
59181;SDS011;45293;44.606;21.176;2023-01-16T01:43:19;37.72;;;16.05;;
59181;SDS011;45293;44.606;21.176;2023-01-16T01:45:47;31.55;;;15.20;;
59181;SDS011;45293;44.606;21.176;2023-01-16T01:53:31;34.30;;;16.27;;
59181;SDS011;45293;44.606;21.176;2023-01-16T01:55:59;38.22;;;17.90;;
59181;SDS011;45293;44.606;21.176;2023-01-16T01:58:26;46.13;;;20.02;;
59181;SDS011;45293;44.606;21.176;2023-01-16T02:00:55;38.83;;;16.70;;
59181;SDS011;45293;44.606;21.176;2023-01-16T02:03:33;37.10;;;16.98;;
59181;SDS011;45293;44.606;21.176;2023-01-16T02:06:00;43.28;;;18.90;;
59181;SDS011;45293;44.606;21.176;2023-01-16T02:08:29;36.13;;;16.33;;
59181;SDS011;45293;44.606;21.176;2023-01-16T02:11:09;32.45;;;15.90;;
59181;SDS011;45293;44.606;21.176;2023-01-16T02:13:51;31.55;;;15.95;;
59181;SDS011;45293;44.606;21.176;2023-01-16T02:16:17;30.08;;;14.65;;
59181;SDS011;45293;44.606;21.176;2023-01-16T02:19:02;35.80;;;15.88;;
59181;SDS011;45293;44.606;21.176;2023-01-16T02:27:08;38.75;;;17.17;;
59181;SDS011;45293;44.606;21.176;2023-01-16T02:32:21;35.92;;;17.30;;
59181;SDS011;45293;44.606;21.176;2023-01-16T02:40:04;35.97;;;16.05;;
59181;SDS011;45293;44.606;21.176;2023-01-16T02:42:33;39.75;;;17.13;;
59181;SDS011;45293;44.606;21.176;2023-01-16T02:45:27;40.92;;;17.60;;
59181;SDS011;45293;44.606;21.176;2023-01-16T02:48:08;41.05;;;16.92;;
59181;SDS011;45293;44.606;21.176;2023-01-16T02:53:22;36.40;;;16.55;;
59181;SDS011;45293;44.606;21.176;2023-01-16T02:55:53;32.17;;;13.68;;
59181;SDS011;45293;44.606;21.176;2023-01-16T02:58:20;32.78;;;14.85;;
59181;SDS011;45293;44.606;21.176;2023-01-16T03:00:56;30.90;;;14.85;;
59181;SDS011;45293;44.606;21.176;2023-01-16T03:05:57;30.58;;;15.43;;
59181;SDS011;45293;44.606;21.176;2023-01-16T03:08:34;34.25;;;15.75;;
59181;SDS011;45293;44.606;21.176;2023-01-16T03:11:15;34.55;;;15.48;;
59181;SDS011;45293;44.606;21.176;2023-01-16T03:13:50;43.38;;;17.05;;
59181;SDS011;45293;44.606;21.176;2023-01-16T03:22:02;31.20;;;15.10;;
59181;SDS011;45293;44.606;21.176;2023-01-16T03:27:10;33.28;;;16.23;;
59181;SDS011;45293;44.606;21.176;2023-01-16T03:29:41;34.05;;;15.50;;
59181;SDS011;45293;44.606;21.176;2023-01-16T03:34:54;33.80;;;16.55;;
59181;SDS011;45293;44.606;21.176;2023-01-16T03:39:48;29.35;;;14.75;;
59181;SDS011;45293;44.606;21.176;2023-01-16T03:42:19;36.05;;;16.80;;
59181;SDS011;45293;44.606;21.176;2023-01-16T03:44:51;31.23;;;15.13;;
59181;SDS011;45293;44.606;21.176;2023-01-16T03:47:26;37.30;;;16.25;;
59181;SDS011;45293;44.606;21.176;2023-01-16T03:49:54;30.38;;;14.32;;
59181;SDS011;45293;44.606;21.176;2023-01-16T03:52:22;26.83;;;13.52;;
59181;SDS011;45293;44.606;21.176;2023-01-16T03:55:02;24.77;;;13.00;;
59181;SDS011;45293;44.606;21.176;2023-01-16T03:57:41;38.95;;;16.65;;
59181;SDS011;45293;44.606;21.176;2023-01-16T04:00:10;45.42;;;16.73;;
59181;SDS011;45293;44.606;21.176;2023-01-16T04:05:20;47.80;;;20.45;;
59181;SDS011;45293;44.606;21.176;2023-01-16T04:07:53;41.90;;;17.10;;
59181;SDS011;45293;44.606;21.176;2023-01-16T04:10:24;28.15;;;13.20;;
59181;SDS011;45293;44.606;21.176;2023-01-16T04:12:55;38.83;;;16.73;;
59181;SDS011;45293;44.606;21.176;2023-01-16T04:15:23;42.03;;;17.45;;
59181;SDS011;45293;44.606;21.176;2023-01-16T04:17:50;33.75;;;14.80;;
59181;SDS011;45293;44.606;21.176;2023-01-16T04:20:16;34.70;;;16.90;;
59181;SDS011;45293;44.606;21.176;2023-01-16T04:22:46;41.00;;;18.05;;
59181;SDS011;45293;44.606;21.176;2023-01-16T04:25:13;48.58;;;20.77;;
59181;SDS011;45293;44.606;21.176;2023-01-16T04:27:39;56.10;;;21.90;;
59181;SDS011;45293;44.606;21.176;2023-01-16T04:30:05;43.08;;;19.75;;
59181;SDS011;45293;44.606;21.176;2023-01-16T04:32:32;40.28;;;18.83;;
59181;SDS011;45293;44.606;21.176;2023-01-16T04:34:58;48.38;;;21.95;;
59181;SDS011;45293;44.606;21.176;2023-01-16T04:37:24;48.15;;;21.50;;
59181;SDS011;45293;44.606;21.176;2023-01-16T04:39:50;49.75;;;22.25;;
59181;SDS011;45293;44.606;21.176;2023-01-16T04:42:17;56.20;;;21.10;;
59181;SDS011;45293;44.606;21.176;2023-01-16T04:44:43;59.72;;;23.60;;
59181;SDS011;45293;44.606;21.176;2023-01-16T04:47:10;56.38;;;22.08;;
59181;SDS011;45293;44.606;21.176;2023-01-16T04:49:36;63.08;;;30.77;;
59181;SDS011;45293;44.606;21.176;2023-01-16T04:52:02;43.38;;;19.58;;
59181;SDS011;45293;44.606;21.176;2023-01-16T04:54:29;39.30;;;17.85;;
59181;SDS011;45293;44.606;21.176;2023-01-16T04:56:55;33.78;;;15.98;;
59181;SDS011;45293;44.606;21.176;2023-01-16T04:59:21;34.60;;;16.25;;
59181;SDS011;45293;44.606;21.176;2023-01-16T05:01:47;36.08;;;17.95;;
59181;SDS011;45293;44.606;21.176;2023-01-16T05:04:13;31.10;;;14.70;;
59181;SDS011;45293;44.606;21.176;2023-01-16T05:06:40;32.15;;;15.68;;
59181;SDS011;45293;44.606;21.176;2023-01-16T05:09:06;32.85;;;14.73;;
59181;SDS011;45293;44.606;21.176;2023-01-16T05:11:32;29.55;;;15.50;;
59181;SDS011;45293;44.606;21.176;2023-01-16T05:13:58;34.33;;;16.27;;
59181;SDS011;45293;44.606;21.176;2023-01-16T05:16:25;30.63;;;16.05;;
59181;SDS011;45293;44.606;21.176;2023-01-16T05:18:51;27.58;;;13.27;;
59181;SDS011;45293;44.606;21.176;2023-01-16T05:21:17;29.65;;;13.60;;
59181;SDS011;45293;44.606;21.176;2023-01-16T05:23:43;34.60;;;16.45;;
59181;SDS011;45293;44.606;21.176;2023-01-16T05:26:09;29.35;;;14.57;;
59181;SDS011;45293;44.606;21.176;2023-01-16T05:28:35;33.05;;;16.42;;
59181;SDS011;45293;44.606;21.176;2023-01-16T05:31:02;32.25;;;15.10;;
59181;SDS011;45293;44.606;21.176;2023-01-16T05:33:28;44.45;;;18.83;;
59181;SDS011;45293;44.606;21.176;2023-01-16T05:35:54;31.45;;;15.68;;
59181;SDS011;45293;44.606;21.176;2023-01-16T05:38:21;38.28;;;16.25;;
59181;SDS011;45293;44.606;21.176;2023-01-16T05:40:47;45.10;;;19.77;;
59181;SDS011;45293;44.606;21.176;2023-01-16T05:43:13;35.15;;;17.70;;
59181;SDS011;45293;44.606;21.176;2023-01-16T05:45:39;35.30;;;15.88;;
59181;SDS011;45293;44.606;21.176;2023-01-16T05:48:05;36.88;;;18.20;;
59181;SDS011;45293;44.606;21.176;2023-01-16T05:50:31;33.70;;;16.70;;
59181;SDS011;45293;44.606;21.176;2023-01-16T05:52:58;33.70;;;17.23;;
59181;SDS011;45293;44.606;21.176;2023-01-16T05:55:24;40.47;;;19.17;;
59181;SDS011;45293;44.606;21.176;2023-01-16T05:57:50;44.80;;;20.73;;
59181;SDS011;45293;44.606;21.176;2023-01-16T06:00:16;39.90;;;18.45;;
59181;SDS011;45293;44.606;21.176;2023-01-16T06:02:42;51.83;;;22.55;;
59181;SDS011;45293;44.606;21.176;2023-01-16T06:05:10;70.03;;;24.67;;
59181;SDS011;45293;44.606;21.176;2023-01-16T06:07:36;54.35;;;22.40;;
59181;SDS011;45293;44.606;21.176;2023-01-16T06:10:02;50.47;;;21.30;;
59181;SDS011;45293;44.606;21.176;2023-01-16T06:12:28;45.10;;;20.27;;
59181;SDS011;45293;44.606;21.176;2023-01-16T06:14:57;40.75;;;17.75;;
59181;SDS011;45293;44.606;21.176;2023-01-16T06:17:23;38.63;;;17.90;;
59181;SDS011;45293;44.606;21.176;2023-01-16T06:19:49;41.17;;;17.45;;
59181;SDS011;45293;44.606;21.176;2023-01-16T06:22:15;46.90;;;18.83;;
59181;SDS011;45293;44.606;21.176;2023-01-16T06:24:41;48.72;;;19.63;;
59181;SDS011;45293;44.606;21.176;2023-01-16T06:27:07;56.00;;;23.40;;
59181;SDS011;45293;44.606;21.176;2023-01-16T06:29:33;60.65;;;23.63;;
59181;SDS011;45293;44.606;21.176;2023-01-16T06:32:00;79.47;;;28.33;;
59181;SDS011;45293;44.606;21.176;2023-01-16T06:34:26;58.85;;;25.08;;
59181;SDS011;45293;44.606;21.176;2023-01-16T06:36:52;60.72;;;26.27;;
59181;SDS011;45293;44.606;21.176;2023-01-16T06:39:18;71.18;;;27.45;;
59181;SDS011;45293;44.606;21.176;2023-01-16T06:41:44;63.00;;;27.42;;
59181;SDS011;45293;44.606;21.176;2023-01-16T06:44:10;68.57;;;29.00;;
59181;SDS011;45293;44.606;21.176;2023-01-16T06:46:36;63.95;;;27.13;;
59181;SDS011;45293;44.606;21.176;2023-01-16T06:49:02;60.60;;;25.95;;
59181;SDS011;45293;44.606;21.176;2023-01-16T06:51:28;55.13;;;22.75;;
59181;SDS011;45293;44.606;21.176;2023-01-16T06:53:54;47.90;;;20.88;;
59181;SDS011;45293;44.606;21.176;2023-01-16T06:56:20;51.97;;;22.85;;
59181;SDS011;45293;44.606;21.176;2023-01-16T06:58:46;52.47;;;23.05;;
59181;SDS011;45293;44.606;21.176;2023-01-16T07:01:12;55.92;;;27.08;;
59181;SDS011;45293;44.606;21.176;2023-01-16T07:03:38;55.53;;;26.60;;
59181;SDS011;45293;44.606;21.176;2023-01-16T07:06:04;67.40;;;30.20;;
59181;SDS011;45293;44.606;21.176;2023-01-16T07:08:31;54.83;;;27.25;;
59181;SDS011;45293;44.606;21.176;2023-01-16T07:11:00;61.72;;;25.77;;
59181;SDS011;45293;44.606;21.176;2023-01-16T07:13:26;50.15;;;24.50;;
59181;SDS011;45293;44.606;21.176;2023-01-16T07:15:53;66.55;;;29.15;;
59181;SDS011;45293;44.606;21.176;2023-01-16T07:18:38;51.90;;;23.60;;
59181;SDS011;45293;44.606;21.176;2023-01-16T07:21:24;47.38;;;21.35;;
59181;SDS011;45293;44.606;21.176;2023-01-16T07:24:10;51.30;;;23.88;;
59181;SDS011;45293;44.606;21.176;2023-01-16T07:26:40;59.47;;;26.50;;
59181;SDS011;45293;44.606;21.176;2023-01-16T07:29:06;56.65;;;25.85;;
59181;SDS011;45293;44.606;21.176;2023-01-16T07:31:32;85.38;;;33.83;;
59181;SDS011;45293;44.606;21.176;2023-01-16T07:33:58;63.47;;;27.73;;
59181;SDS011;45293;44.606;21.176;2023-01-16T07:36:24;50.58;;;24.13;;
59181;SDS011;45293;44.606;21.176;2023-01-16T07:38:51;62.47;;;27.90;;
59181;SDS011;45293;44.606;21.176;2023-01-16T07:41:17;51.90;;;22.55;;
59181;SDS011;45293;44.606;21.176;2023-01-16T07:43:43;53.47;;;23.75;;
59181;SDS011;45293;44.606;21.176;2023-01-16T07:46:09;76.70;;;34.03;;
59181;SDS011;45293;44.606;21.176;2023-01-16T07:48:35;87.20;;;40.30;;
59181;SDS011;45293;44.606;21.176;2023-01-16T07:51:01;53.17;;;23.70;;
59181;SDS011;45293;44.606;21.176;2023-01-16T07:53:28;45.55;;;21.00;;
59181;SDS011;45293;44.606;21.176;2023-01-16T07:55:55;33.25;;;15.63;;
59181;SDS011;45293;44.606;21.176;2023-01-16T07:58:21;56.75;;;25.05;;
59181;SDS011;45293;44.606;21.176;2023-01-16T08:00:48;46.55;;;20.85;;
59181;SDS011;45293;44.606;21.176;2023-01-16T08:03:14;44.70;;;20.33;;
59181;SDS011;45293;44.606;21.176;2023-01-16T08:05:41;42.72;;;19.98;;
59181;SDS011;45293;44.606;21.176;2023-01-16T08:08:11;38.85;;;18.45;;
59181;SDS011;45293;44.606;21.176;2023-01-16T08:10:37;48.92;;;21.02;;
59181;SDS011;45293;44.606;21.176;2023-01-16T08:13:03;39.10;;;18.80;;
59181;SDS011;45293;44.606;21.176;2023-01-16T08:15:29;74.65;;;29.55;;
59181;SDS011;45293;44.606;21.176;2023-01-16T08:17:55;58.35;;;26.10;;
59181;SDS011;45293;44.606;21.176;2023-01-16T08:20:21;60.95;;;29.17;;
59181;SDS011;45293;44.606;21.176;2023-01-16T08:22:50;64.15;;;28.35;;
59181;SDS011;45293;44.606;21.176;2023-01-16T08:25:17;50.38;;;21.92;;
59181;SDS011;45293;44.606;21.176;2023-01-16T08:27:43;43.85;;;20.00;;
59181;SDS011;45293;44.606;21.176;2023-01-16T08:30:10;54.63;;;24.17;;
59181;SDS011;45293;44.606;21.176;2023-01-16T08:32:36;74.20;;;29.63;;
59181;SDS011;45293;44.606;21.176;2023-01-16T08:35:02;71.00;;;28.40;;
59181;SDS011;45293;44.606;21.176;2023-01-16T08:37:29;65.63;;;24.98;;
59181;SDS011;45293;44.606;21.176;2023-01-16T08:39:55;59.67;;;25.80;;
59181;SDS011;45293;44.606;21.176;2023-01-16T08:42:21;105.95;;;41.85;;
59181;SDS011;45293;44.606;21.176;2023-01-16T08:45:09;108.40;;;43.47;;
59181;SDS011;45293;44.606;21.176;2023-01-16T08:47:54;65.43;;;29.90;;
59181;SDS011;45293;44.606;21.176;2023-01-16T08:50:40;61.63;;;28.95;;
59181;SDS011;45293;44.606;21.176;2023-01-16T08:53:25;53.67;;;23.98;;
59181;SDS011;45293;44.606;21.176;2023-01-16T08:55:51;57.35;;;25.45;;
59181;SDS011;45293;44.606;21.176;2023-01-16T08:58:17;48.03;;;22.98;;
59181;SDS011;45293;44.606;21.176;2023-01-16T09:00:46;52.95;;;22.75;;
59181;SDS011;45293;44.606;21.176;2023-01-16T09:03:12;46.15;;;20.95;;
59181;SDS011;45293;44.606;21.176;2023-01-16T09:05:38;63.90;;;27.90;;
59181;SDS011;45293;44.606;21.176;2023-01-16T09:08:04;48.35;;;23.20;;
59181;SDS011;45293;44.606;21.176;2023-01-16T09:10:30;54.13;;;24.10;;
59181;SDS011;45293;44.606;21.176;2023-01-16T09:12:56;60.10;;;26.92;;
59181;SDS011;45293;44.606;21.176;2023-01-16T09:15:41;52.55;;;23.55;;
59181;SDS011;45293;44.606;21.176;2023-01-16T09:18:07;40.00;;;20.38;;
59181;SDS011;45293;44.606;21.176;2023-01-16T09:20:33;36.63;;;18.33;;
59181;SDS011;45293;44.606;21.176;2023-01-16T09:23:00;36.88;;;17.23;;
59181;SDS011;45293;44.606;21.176;2023-01-16T09:25:27;24.30;;;12.25;;
59181;SDS011;45293;44.606;21.176;2023-01-16T09:27:53;28.83;;;13.45;;
59181;SDS011;45293;44.606;21.176;2023-01-16T09:30:19;28.67;;;14.70;;
59181;SDS011;45293;44.606;21.176;2023-01-16T09:32:45;32.53;;;15.65;;
59181;SDS011;45293;44.606;21.176;2023-01-16T09:35:12;24.88;;;13.55;;
59181;SDS011;45293;44.606;21.176;2023-01-16T09:37:38;24.73;;;12.32;;
59181;SDS011;45293;44.606;21.176;2023-01-16T09:40:08;29.95;;;13.95;;
59181;SDS011;45293;44.606;21.176;2023-01-16T09:45:38;22.02;;;11.35;;
59181;SDS011;45293;44.606;21.176;2023-01-16T09:48:08;22.70;;;11.93;;
59181;SDS011;45293;44.606;21.176;2023-01-16T09:50:44;20.15;;;10.82;;
59181;SDS011;45293;44.606;21.176;2023-01-16T09:53:24;25.88;;;14.25;;
59181;SDS011;45293;44.606;21.176;2023-01-16T09:56:12;23.83;;;12.23;;
59181;SDS011;45293;44.606;21.176;2023-01-16T10:01:41;36.70;;;14.27;;
59181;SDS011;45293;44.606;21.176;2023-01-16T10:06:42;26.30;;;12.68;;
59181;SDS011;45293;44.606;21.176;2023-01-16T10:09:13;24.73;;;12.05;;
59181;SDS011;45293;44.606;21.176;2023-01-16T10:11:53;25.98;;;14.13;;
59181;SDS011;45293;44.606;21.176;2023-01-16T10:14:30;31.52;;;15.65;;
59181;SDS011;45293;44.606;21.176;2023-01-16T10:20:13;32.13;;;16.08;;
59181;SDS011;45293;44.606;21.176;2023-01-16T10:32:38;42.75;;;20.90;;
59181;SDS011;45293;44.606;21.176;2023-01-16T10:37:33;45.22;;;24.10;;
59181;SDS011;45293;44.606;21.176;2023-01-16T10:40:00;35.63;;;17.27;;
59181;SDS011;45293;44.606;21.176;2023-01-16T10:45:22;36.45;;;16.80;;
59181;SDS011;45293;44.606;21.176;2023-01-16T10:48:12;30.15;;;13.50;;
59181;SDS011;45293;44.606;21.176;2023-01-16T10:50:57;28.30;;;14.52;;
59181;SDS011;45293;44.606;21.176;2023-01-16T10:53:23;26.85;;;13.98;;
59181;SDS011;45293;44.606;21.176;2023-01-16T10:55:50;29.85;;;14.57;;
59181;SDS011;45293;44.606;21.176;2023-01-16T10:58:36;24.42;;;12.77;;
59181;SDS011;45293;44.606;21.176;2023-01-16T11:03:43;33.65;;;14.18;;
59181;SDS011;45293;44.606;21.176;2023-01-16T11:08:35;36.13;;;15.65;;
59181;SDS011;45293;44.606;21.176;2023-01-16T11:11:02;40.22;;;17.88;;
59181;SDS011;45293;44.606;21.176;2023-01-16T11:13:30;34.50;;;15.85;;
59181;SDS011;45293;44.606;21.176;2023-01-16T11:16:26;45.05;;;20.20;;
59181;SDS011;45293;44.606;21.176;2023-01-16T11:19:19;45.53;;;20.48;;
59181;SDS011;45293;44.606;21.176;2023-01-16T11:21:58;37.95;;;18.50;;
59181;SDS011;45293;44.606;21.176;2023-01-16T11:24:35;46.80;;;21.00;;
59181;SDS011;45293;44.606;21.176;2023-01-16T11:27:03;34.30;;;15.85;;
59181;SDS011;45293;44.606;21.176;2023-01-16T11:29:35;46.22;;;19.40;;
59181;SDS011;45293;44.606;21.176;2023-01-16T11:32:06;41.03;;;19.00;;
59181;SDS011;45293;44.606;21.176;2023-01-16T11:34:32;42.75;;;19.15;;
59181;SDS011;45293;44.606;21.176;2023-01-16T11:37:02;33.80;;;15.80;;
59181;SDS011;45293;44.606;21.176;2023-01-16T11:39:30;39.70;;;17.17;;
59181;SDS011;45293;44.606;21.176;2023-01-16T11:41:57;38.67;;;17.55;;
59181;SDS011;45293;44.606;21.176;2023-01-16T11:47:13;38.22;;;18.35;;
59181;SDS011;45293;44.606;21.176;2023-01-16T11:49:43;31.27;;;16.27;;
59181;SDS011;45293;44.606;21.176;2023-01-16T11:52:14;32.67;;;13.93;;
59181;SDS011;45293;44.606;21.176;2023-01-16T11:54:52;42.30;;;18.38;;
59181;SDS011;45293;44.606;21.176;2023-01-16T12:11:36;47.95;;;21.90;;
59181;SDS011;45293;44.606;21.176;2023-01-16T12:13:46;35.85;;;15.52;;
59181;SDS011;45293;44.606;21.176;2023-01-16T12:22:00;43.72;;;19.25;;
59181;SDS011;45293;44.606;21.176;2023-01-16T12:24:42;38.65;;;19.42;;
59181;SDS011;45293;44.606;21.176;2023-01-16T14:14:16;37.90;;;16.13;;
59181;SDS011;45293;44.606;21.176;2023-01-16T14:17:05;39.45;;;16.00;;
59181;SDS011;45293;44.606;21.176;2023-01-16T14:19:35;38.85;;;16.85;;
59181;SDS011;45293;44.606;21.176;2023-01-16T14:22:02;40.40;;;16.13;;
59181;SDS011;45293;44.606;21.176;2023-01-16T14:24:42;36.33;;;15.95;;
59181;SDS011;45293;44.606;21.176;2023-01-16T14:27:13;33.22;;;15.23;;
59181;SDS011;45293;44.606;21.176;2023-01-16T14:34:40;34.78;;;16.23;;
59181;SDS011;45293;44.606;21.176;2023-01-16T14:37:43;30.63;;;15.52;;
59181;SDS011;45293;44.606;21.176;2023-01-16T14:40:04;26.83;;;13.52;;
59181;SDS011;45293;44.606;21.176;2023-01-16T14:42:39;38.10;;;18.58;;
59181;SDS011;45293;44.606;21.176;2023-01-16T14:45:26;36.35;;;17.35;;
59181;SDS011;45293;44.606;21.176;2023-01-16T14:53:55;39.40;;;15.43;;
59181;SDS011;45293;44.606;21.176;2023-01-16T14:56:41;37.15;;;15.10;;
59181;SDS011;45293;44.606;21.176;2023-01-16T14:59:09;44.53;;;19.08;;
59181;SDS011;45293;44.606;21.176;2023-01-16T15:01:43;36.75;;;15.38;;
59181;SDS011;45293;44.606;21.176;2023-01-16T15:07:17;29.73;;;14.85;;
59181;SDS011;45293;44.606;21.176;2023-01-16T15:09:46;30.33;;;14.50;;
59181;SDS011;45293;44.606;21.176;2023-01-16T15:12:15;31.15;;;13.75;;
59181;SDS011;45293;44.606;21.176;2023-01-16T15:14:57;32.28;;;15.32;;
59181;SDS011;45293;44.606;21.176;2023-01-16T15:17:26;33.95;;;16.38;;
59181;SDS011;45293;44.606;21.176;2023-01-16T15:22:56;54.33;;;22.48;;
59181;SDS011;45293;44.606;21.176;2023-01-16T15:30:31;46.38;;;18.20;;
59181;SDS011;45293;44.606;21.176;2023-01-16T15:32:58;33.47;;;17.15;;
59181;SDS011;45293;44.606;21.176;2023-01-16T15:35:44;33.20;;;15.38;;
59181;SDS011;45293;44.606;21.176;2023-01-16T15:38:10;31.80;;;15.07;;
59181;SDS011;45293;44.606;21.176;2023-01-16T15:40:37;26.70;;;13.85;;
59181;SDS011;45293;44.606;21.176;2023-01-16T15:43:03;29.23;;;15.55;;
59181;SDS011;45293;44.606;21.176;2023-01-16T15:51:28;34.90;;;16.45;;
59181;SDS011;45293;44.606;21.176;2023-01-16T15:53:55;35.42;;;15.85;;
59181;SDS011;45293;44.606;21.176;2023-01-16T15:56:33;38.63;;;16.90;;
59181;SDS011;45293;44.606;21.176;2023-01-16T15:59:00;43.63;;;20.27;;
59181;SDS011;45293;44.606;21.176;2023-01-16T16:01:33;39.90;;;17.15;;
59181;SDS011;45293;44.606;21.176;2023-01-16T16:04:00;38.10;;;16.98;;
59181;SDS011;45293;44.606;21.176;2023-01-16T16:06:27;44.80;;;20.40;;
59181;SDS011;45293;44.606;21.176;2023-01-16T16:08:55;41.53;;;16.80;;
59181;SDS011;45293;44.606;21.176;2023-01-16T16:11:25;35.88;;;14.93;;
59181;SDS011;45293;44.606;21.176;2023-01-16T16:14:15;32.97;;;15.07;;
59181;SDS011;45293;44.606;21.176;2023-01-16T16:17:03;30.48;;;14.30;;
59181;SDS011;45293;44.606;21.176;2023-01-16T16:19:48;40.15;;;16.77;;
59181;SDS011;45293;44.606;21.176;2023-01-16T16:22:16;30.67;;;16.80;;
59181;SDS011;45293;44.606;21.176;2023-01-16T16:25:16;36.97;;;16.05;;
59181;SDS011;45293;44.606;21.176;2023-01-16T16:27:42;36.22;;;16.27;;
59181;SDS011;45293;44.606;21.176;2023-01-16T16:30:14;43.00;;;19.67;;
59181;SDS011;45293;44.606;21.176;2023-01-16T16:32:42;48.33;;;23.13;;
59181;SDS011;45293;44.606;21.176;2023-01-16T16:35:15;36.97;;;18.98;;
59181;SDS011;45293;44.606;21.176;2023-01-16T16:37:42;41.25;;;18.63;;
59181;SDS011;45293;44.606;21.176;2023-01-16T16:40:12;35.67;;;17.50;;
59181;SDS011;45293;44.606;21.176;2023-01-16T16:42:49;28.95;;;16.10;;
59181;SDS011;45293;44.606;21.176;2023-01-16T16:47:43;55.53;;;27.35;;
59181;SDS011;45293;44.606;21.176;2023-01-16T16:57:57;42.25;;;21.42;;
59181;SDS011;45293;44.606;21.176;2023-01-16T17:00:23;40.00;;;19.85;;
59181;SDS011;45293;44.606;21.176;2023-01-16T17:02:50;44.47;;;20.27;;
59181;SDS011;45293;44.606;21.176;2023-01-16T17:05:18;46.15;;;21.55;;
59181;SDS011;45293;44.606;21.176;2023-01-16T17:07:45;37.47;;;17.60;;
59181;SDS011;45293;44.606;21.176;2023-01-16T17:10:15;36.58;;;17.38;;
59181;SDS011;45293;44.606;21.176;2023-01-16T17:12:41;40.65;;;18.75;;
59181;SDS011;45293;44.606;21.176;2023-01-16T17:15:07;39.63;;;17.40;;
59181;SDS011;45293;44.606;21.176;2023-01-16T17:17:36;39.42;;;17.40;;
59181;SDS011;45293;44.606;21.176;2023-01-16T17:20:03;31.17;;;14.23;;
59181;SDS011;45293;44.606;21.176;2023-01-16T17:22:30;39.25;;;16.60;;
59181;SDS011;45293;44.606;21.176;2023-01-16T17:24:56;56.40;;;21.52;;
59181;SDS011;45293;44.606;21.176;2023-01-16T17:27:22;38.53;;;17.95;;
59181;SDS011;45293;44.606;21.176;2023-01-16T17:29:49;37.55;;;17.25;;
59181;SDS011;45293;44.606;21.176;2023-01-16T17:32:28;35.70;;;15.25;;
59181;SDS011;45293;44.606;21.176;2023-01-16T17:34:55;35.55;;;16.05;;
59181;SDS011;45293;44.606;21.176;2023-01-16T17:37:22;54.00;;;24.13;;
59181;SDS011;45293;44.606;21.176;2023-01-16T17:39:48;35.15;;;17.02;;
59181;SDS011;45293;44.606;21.176;2023-01-16T17:42:14;47.92;;;22.45;;
59181;SDS011;45293;44.606;21.176;2023-01-16T17:44:40;52.17;;;22.25;;
59181;SDS011;45293;44.606;21.176;2023-01-16T17:47:24;50.15;;;21.00;;
59181;SDS011;45293;44.606;21.176;2023-01-16T17:49:52;48.05;;;18.55;;
59181;SDS011;45293;44.606;21.176;2023-01-16T17:52:37;72.10;;;27.80;;
59181;SDS011;45293;44.606;21.176;2023-01-16T17:55:03;31.98;;;13.35;;
59181;SDS011;45293;44.606;21.176;2023-01-16T17:57:48;32.83;;;14.65;;
59181;SDS011;45293;44.606;21.176;2023-01-16T18:00:14;20.40;;;10.68;;
59181;SDS011;45293;44.606;21.176;2023-01-16T18:02:40;27.17;;;13.70;;
59181;SDS011;45293;44.606;21.176;2023-01-16T18:05:06;35.15;;;16.38;;
59181;SDS011;45293;44.606;21.176;2023-01-16T18:07:32;54.97;;;23.52;;
59181;SDS011;45293;44.606;21.176;2023-01-16T18:09:59;65.40;;;28.08;;
59181;SDS011;45293;44.606;21.176;2023-01-16T18:12:25;71.32;;;29.50;;
59181;SDS011;45293;44.606;21.176;2023-01-16T18:15:09;81.00;;;33.88;;
59181;SDS011;45293;44.606;21.176;2023-01-16T18:17:54;60.03;;;26.38;;
59181;SDS011;45293;44.606;21.176;2023-01-16T18:20:20;64.93;;;28.90;;
59181;SDS011;45293;44.606;21.176;2023-01-16T18:22:46;69.28;;;31.70;;